AirNav   Air Wisconsin pilot careers
 
 433 users online  

4B7 Schroon Lake Airport
Schroon Lake, New York, USA


FAA INFORMATION EFFECTIVE 04 JANUARY 2018

Location

FAA Identifier: 4B7
Lat/Long: 43-51-45.2862N / 073-44-25.9700W
43-51.754770N / 073-44.432833W
43.8625795 / -73.7405472
(estimated)
Elevation: 834.2 ft. / 254 m (estimated)
Variation: 15W (1985)
From city: 2 miles N of SCHROON LAKE, NY
Time zone: UTC -5 (UTC -4 during Daylight Saving Time)
Zip code: 12870

Airport Operations

Airport use: Open to the public
Activation date: 09/1966
Control tower: no
ARTCC: BOSTON CENTER
FSS: BURLINGTON FLIGHT SERVICE STATION
NOTAMs facility: BTV (NOTAM-D service available)
Attendance: UNATNDD, ALL DAYLIGHT HOURS
Wind indicator: yes
Segmented circle: no

Airport Communications

CTAF: 122.9

Nearby radio navigation aids

VOR radial/distance  VOR name  Freq  Var
GFLr004/31.8GLENS FALLS VORTAC110.2014W
SLKr161/37.2SARANAC LAKE VOR/DME109.2014W
RUTr315/39.8RUTLAND VOR/DME111.0015W

 
NDB name  Hdg/Dist  Freq  Var  ID
SMUTO300/35.222115WDYO -.. -.-- ---

Airport Services

Parking: tiedowns
Airframe service: NONE
Powerplant service: NONE
Bottled oxygen: NONE
Bulk oxygen: NONE

Runway Information

Runway 16/34

Dimensions: 3000 x 60 ft. / 914 x 18 m
Surface: asphalt, in good condition
Weight bearing capacity: 
Single wheel: 13.0
RUNWAY 16  RUNWAY 34
Traffic pattern: leftleft
Displaced threshold: 100 ft.no
Markings: basic, in fair conditionbasic, in fair condition
Runway end identifier lights: nono
Obstructions: 15 ft. road, 200 ft. from runway
RY 16 15 FT ROAD PARALLEL TO RY 118 FT RT. 42 FT TREE 163 FT FM RY 98 FT LT.
80 ft. trees, 285 ft. from runway, 81 ft. right of centerline, 1:1 slope to clear
RY 34 66 FT TREE 115 FT FM RY END 123 FT RT. 49 FT TREE O FT FM RY 118 FT LT. 60 FT TREE 87 FT FM RY 125 FT LT. 17 FT TREE 116 FT FM RY 8 FT LT.

Airport Ownership and Management from official FAA records

Ownership: Publicly-owned
Owner: TOWN OF SCHROON LAKE
SCHROON LAKE, NY 12870
Phone 518-532-7737
Manager: TOWN SUPERVISOR
C/O TOWN OF SCHROON LAKE
SCHROON LAKE, NY 12870
Phone 518-532-7737
FOR SVC CALL MGR PHONE 518-532-7737 OR 532-7878.

Airport Operational Statistics

Aircraft based on the field: 1
Single engine airplanes: 1
    
Aircraft operations: avg 67/month *
75% local general aviation
25% transient general aviation
* for 12-month period ending 12 September 2014

Additional Remarks

DEBRIS FM ADJACENT LAND FILL IS OCCASIONALLY BLOWN ONTO AND ACROSS RY.
TREES PENETRATE TRANSITION SFC BOTH SIDES;ROCK LEDGE PENETRATES TRANSITION SFC ON RIGHT SIDE
RECOMMENDED LDG RY 16, TKOF RY 34.
25 FT DROPOFF 30 FT FM RY 34 END.

Instrument Procedures

There are no published instrument procedures at 4B7.

Some nearby airports with instrument procedures:

4B6 - Ticonderoga Municipal Airport (14 nm E)
KLKP - Lake Placid Airport (26 nm N)
KGFL - Floyd Bennett Memorial Airport (32 nm S)
KSLK - Adirondack Regional Airport (37 nm NW)
KRUT - Rutland - Southern Vermont Regional Airport (40 nm SE)
 
Loc | Ops | Rwys | IFR | FBO | Links
Com | Nav | Svcs | Stats | Notes


 
Area around 4B7 (Schroon Lake Airport)
 
Road maps at: MapQuest Bing Google
 
Aerial photo
WARNING: Photo may not be current or correct
Aerial photo of 4B7 (Schroon Lake Airport)
Do you have a better or more recent aerial photo of Schroon Lake Airport that you would like to share? If so, please send us your photo.

 
Sectional chart

 
Airport distance calculator
Flying to Schroon Lake Airport? Find the distance to fly.

From to 4B7

Sunrise and sunset
Times for 22-Jan-2018
 Local
(UTC-5)
 Zulu
(UTC)
Morning civil twilight06:5111:51
Sunrise07:2312:23
Sunset16:5121:51
Evening civil twilight17:2222:22

Current date and time
Zulu (UTC)  22-Jan-2018 07:02:58
Local (UTC-5)  22-Jan-2018 02:02:58
 
METAR
K6B0 
29nm E 
220655Z AUTO 36003KT 10SM OVC065 M02/M03 A3017 RMK AO2 T10221033
KGFL 
32nm S 
220653Z AUTO 34003KT 4SM BR OVC035 M01/M01 A3017 RMK AO2 SLP222 T10061011
KSLK 
38nm NW 
220651Z AUTO 06003KT 10SM BKN040 OVC090 M02/M03 A3009 RMK AO2 SLP205 T10171028
KRUT 
40nm SE 
220656Z AUTO 00000KT 9SM OVC034 M01/M02 A3016 RMK AO2 SLP234 T10061017 FZRANO $
KBTV 
44nm NE 
220654Z 32007KT 10SM OVC100 M02/M06 A3019 RMK AO2 SLP226 T10221056
KPBG 
49nm N 
220653Z AUTO 01009KT 10SM BKN028 OVC100 M03/M07 A3021 RMK AO2 SLP234 T10331067
TAF
KGFL 
32nm S 
220533Z 2206/2306 00000KT 5SM BR VCSH OVC035 TEMPO 2206/2209 3SM -SNPL BR OVC025 FM220900 00000KT 4SM BR VCSH OVC020 TEMPO 2210/2212 2SM -SNPL BR OVC009 FM221200 04003KT 4SM BR VCSH OVC015 FM222100 05004KT 2SM -RA BR OVC009
KSLK 
38nm NW 
220536Z 2206/2306 00000KT P6SM OVC080 FM221800 08005KT P6SM VCSH OVC025 FM222000 09007KT 1 1/2SM -SNPL BR OVC025 FM222300 11009KT 3/4SM -FZRA BR OVC010 FM230200 14008KT 1SM -FZRA BR OVC008 FM230400 17009KT P6SM -RA OVC025
KRUT 
40nm SE 
220536Z 2206/2306 12004KT P6SM BKN080 FM221100 00000KT P6SM OVC030 FM221700 10005KT P6SM VCSH OVC020 FM222100 12010KT P6SM -RA OVC020 FM222300 13012KT 4SM -RA BR OVC015 FM230400 14013G20KT P6SM VCSH OVC025
NOTAMs
Click for the latest NOTAMs
NOTAMs are issued by the DoD/FAA and will open in a separate window not controlled by AirNav.

 

 
 

Would you like to see your business listed on this page?

 If your business provides an interesting product or service to pilots, flight crews, aircraft, or users of the Schroon Lake Airport, you should consider listing it here.  To start the listing process, click on the button below
 
Add a business
 

Other Pages about Schroon Lake Airport

Update a link
 
Copyright © AirNav, LLC. All rights reserved. Privacy Policy  Contact